Aérodrome :
LOGIN :

S'inscrire | Disclaimer

   EN    FR    IT 

 










Légende :    VFR   VFR Marginal   IFR   IFR Intensif   IFR Très Intensif
Visi : 
Plafond : 
>= 8 km
>= 3000ft
5 à 8 km
1000 à 3000 ft
1500m à 5 km
500 à 1000 ft
800 à 1500m
200 à 500 ft
< 800m
< 200 ft
Symboles :   Orages  Brouillard  Fortes neiges  Fortes précipitations  Vent > 20 kt
SIGMETs :   Divers  Orages  Givrage  Turbulence  Onde Orograph.  Cendres Volcan.







- Altitude de l'aérodrome : 12 ft
- Code IATA : NCE
- Voir les cartes d'approche


LFMN - Nice

DERNIER METAR :
  • 261830Z 21003KT 9999 BKN076 21/11 Q1017 NOSIG

METARs EXPIRÉS :
  • 261800Z VRB02KT 9999 BKN075 22/10 Q1017 NOSIG
  • 261730Z 18002KT 9999 FEW030 BKN073 21/13 Q1016 NOSIG
  • 261700Z 14003KT 9999 FEW030 SCT078 22/12 Q1016 NOSIG
  • 261630Z 12003KT 9999 FEW030 SCT078 22/12 Q1017 NOSIG
  • 261600Z 10003KT 9999 FEW030 SCT078 22/12 Q1017 NOSIG

TAF TAF LFMN
Valide du 26 à 15h jusqu'au 27 à 21h UTC


261400Z 2615/2721 11005KT 9999 FEW020 SCT080
BECMG 2616/2618 VRB02KT
BECMG 2701/2703 34010KT
BECMG 2707/2709 18005KT
BECMG 2716/2718 VRB02KT
ATIS : +33 4 93 17 21 16
Pas de NOTAMs connus pour ce terrain.



MET'MAP, la Météo Aéronautique d'un coup d'oeil ! - Copyright ORBIFLY Décembre 2007 - Disclaimer

ORBIFLY MET'MAP TEAM :

Programmation & Développement : Alexandra Zaïnal
Conception & Développement : Baudouin d'Aumeries
Co-Programmation & Développement : Marc-Olivier Méhu
Soutien technique & logistique : Manuel Goepfert

Contact : metmap@orbifly.com




SOURCES & CREDITS :

   NOAA